Terminal Aerodrome Forecast
Issued by NWS Boston, MA

Home | Current Version | Previous Version | Text Only | Print | Product List | Glossary On
Versions: 1 2 3 4 5 6 7 8 9 10 11 12 13 14 15 16 17 18 19 20 21 22 23 24 25 26 27 28 29 30 31 32 33 34 35 36 37 38 39 40 41 42 43 44
160
FTUS41 KBOX 232344
TAFBDL
TAF
KBDL 232344Z 2400/2506 04017G28KT P6SM -SNPL OVC020
     FM240300 04014G32KT 2SM -PL OVC015
     FM240600 04015G30KT 2SM RAPL OVC015
     FM240900 03014G30KT 2SM -RAPL OVC015
     FM241200 03014G29KT 2SM -RA OVC015 WS020/05045KT
     FM241300 03013G28KT 1 1/2SM -RA OVC015
     FM241800 02011G21KT 2SM -RA OVC010
     FM250500 34009KT P6SM OVC025=

USA.gov is the U.S. government's official web portal to all federal, state and local government web resources and services.